createdAt,value
2023-02-08T00:01:18.660Z,101534.34
2023-02-08T00:03:52.570Z,101535.84
2023-02-08T00:06:44.126Z,101524.58
2023-02-08T00:09:17.792Z,101526.44
2023-02-08T00:11:51.061Z,101532.28
2023-02-08T00:14:24.521Z,101531.72
2023-02-08T00:16:57.913Z,101519.00
2023-02-08T00:19:31.471Z,101524.09
2023-02-08T00:22:04.643Z,101508.83
2023-02-08T00:24:38.178Z,101516.45
2023-02-08T00:27:11.801Z,101519.89
2023-02-08T00:30:02.326Z,101537.37
2023-02-08T00:32:36.416Z,101525.70
2023-02-08T00:35:10.672Z,101527.92
2023-02-08T00:37:44.105Z,101538.26
2023-02-08T00:40:17.743Z,101524.66
2023-02-08T00:42:51.177Z,101518.08
2023-02-08T00:45:24.927Z,101525.14
2023-02-08T00:47:58.383Z,101531.52
2023-02-08T00:50:31.523Z,101536.44
2023-02-08T00:53:05.066Z,101527.92
2023-02-08T00:55:38.252Z,101535.72
2023-02-08T00:58:11.666Z,101531.52
2023-02-08T01:00:45.169Z,101536.44
2023-02-08T01:03:21.892Z,101534.46
2023-02-08T01:06:04.306Z,101526.27
2023-02-08T01:08:41.494Z,101533.34
2023-02-08T01:11:22.017Z,101536.40
2023-02-08T01:14:01.041Z,101523.84
2023-02-08T01:16:36.551Z,101529.83
2023-02-08T01:19:10.031Z,101515.13
2023-02-08T01:22:01.698Z,101512.78
2023-02-08T01:24:35.756Z,101523.16
2023-02-08T01:27:09.679Z,101518.08
2023-02-08T01:29:43.151Z,101518.08
2023-02-08T01:32:16.309Z,101510.45
2023-02-08T01:34:49.775Z,101515.53
2023-02-08T01:37:40.769Z,101510.97
2023-02-08T01:40:15.927Z,101521.30
2023-02-08T01:42:49.508Z,101514.24
2023-02-08T01:45:43.835Z,101510.97
2023-02-08T01:48:20.277Z,101508.59
2023-02-08T01:50:56.744Z,101498.98
2023-02-08T01:53:33.155Z,101500.44
2023-02-08T01:56:09.569Z,101506.77
2023-02-08T01:58:45.813Z,101509.67
2023-02-08T02:01:19.307Z,101507.45
2023-02-08T02:03:52.751Z,101513.44
2023-02-08T02:06:28.852Z,101502.20
2023-02-08T02:09:05.758Z,101500.39
2023-02-08T02:11:39.539Z,101502.37
2023-02-08T02:14:13.818Z,101509.27
2023-02-08T02:16:48.884Z,101493.09
2023-02-08T02:22:11.742Z,101483.70
2023-02-08T02:25:06.469Z,101480.89
2023-02-08T02:28:27.071Z,101484.89
2023-02-08T02:31:35.051Z,101492.52
2023-02-08T02:34:11.695Z,101485.62
2023-02-08T02:36:48.136Z,101483.08
2023-02-08T02:39:26.878Z,101478.39
2023-02-08T02:42:20.759Z,101478.39
2023-02-08T02:44:58.706Z,101482.02
2023-02-08T02:47:53.346Z,101480.45
2023-02-08T02:50:29.787Z,101465.77
2023-02-08T02:53:06.038Z,101486.11
2023-02-08T02:55:42.576Z,101477.75
2023-02-08T02:58:17.885Z,101474.44
2023-02-08T03:00:56.515Z,101474.80
2023-02-08T03:03:32.889Z,101484.41
2023-02-08T03:06:09.929Z,101477.98
2023-02-08T03:08:59.576Z,101482.34
2023-02-08T03:11:51.987Z,101466.52
2023-02-08T03:14:33.040Z,101477.61
2023-02-08T03:17:24.343Z,101477.98
2023-02-08T03:20:02.538Z,101471.85
2023-02-08T03:22:41.901Z,101471.28
2023-02-08T03:25:36.108Z,101471.03
2023-02-08T03:28:12.502Z,101458.16
2023-02-08T03:30:50.434Z,101442.58
2023-02-08T03:33:42.571Z,101456.91
2023-02-08T03:36:20.692Z,101447.83
2023-02-08T03:39:14.646Z,101449.95
2023-02-08T03:41:51.121Z,101452.50
2023-02-08T03:44:27.522Z,101442.84
2023-02-08T03:47:04.470Z,101441.86
2023-02-08T03:49:40.055Z,101438.90
2023-02-08T03:52:13.879Z,101436.86
2023-02-08T03:54:50.234Z,101439.41
2023-02-08T03:57:26.354Z,101438.80
2023-02-08T04:00:02.750Z,101439.47
2023-02-08T04:02:56.218Z,101431.83
2023-02-08T04:05:29.932Z,101433.65
2023-02-08T04:08:06.978Z,101424.93
2023-02-08T04:10:40.977Z,101420.92
2023-02-08T04:13:14.528Z,101423.05
2023-02-08T04:15:47.676Z,101425.37
2023-02-08T04:18:21.023Z,101423.10
2023-02-08T04:21:12.361Z,101431.31
2023-02-08T04:23:45.954Z,101429.22
2023-02-08T04:26:19.288Z,101428.88
2023-02-08T04:28:52.739Z,101422.31
2023-02-08T04:31:26.380Z,101417.55
2023-02-08T04:33:59.643Z,101420.28
2023-02-08T04:36:50.264Z,101423.61
2023-02-08T04:39:23.668Z,101417.94
2023-02-08T04:41:57.103Z,101415.63
2023-02-08T04:44:47.750Z,101425.64
2023-02-08T04:47:21.159Z,101424.34
2023-02-08T04:49:54.575Z,101419.67
2023-02-08T04:52:27.743Z,101419.98
2023-02-08T04:55:01.417Z,101419.41
2023-02-08T04:57:35.140Z,101419.56
2023-02-08T05:00:10.591Z,101412.23
2023-02-08T05:02:44.008Z,101420.06
2023-02-08T05:05:19.217Z,101415.86
2023-02-08T05:07:53.064Z,101418.83
2023-02-08T05:10:26.640Z,101408.95
2023-02-08T05:13:00.093Z,101423.34
2023-02-08T05:15:33.331Z,101427.20
2023-02-08T05:18:07.010Z,101420.87
2023-02-08T05:20:40.968Z,101410.53
2023-02-08T05:23:14.684Z,101420.30
2023-02-08T05:25:47.978Z,101411.92
2023-02-08T05:28:21.934Z,101413.00
2023-02-08T05:30:55.514Z,101407.14
2023-02-08T05:33:30.099Z,101405.67
2023-02-08T05:36:05.225Z,101412.00
2023-02-08T05:38:39.132Z,101413.23
2023-02-08T05:41:12.747Z,101404.52
2023-02-08T05:43:46.701Z,101402.28
2023-02-08T05:46:20.183Z,101400.08
2023-02-08T05:48:53.574Z,101395.14
2023-02-08T05:51:27.156Z,101390.55
2023-02-08T05:54:00.649Z,101394.13
2023-02-08T05:56:34.775Z,101397.76
2023-02-08T05:59:08.281Z,101400.61
2023-02-08T06:01:42.497Z,101392.67
2023-02-08T06:04:16.625Z,101395.37
2023-02-08T06:06:50.166Z,101403.74
2023-02-08T06:09:23.592Z,101390.27
2023-02-08T06:11:57.315Z,101384.29
2023-02-08T06:14:30.662Z,101392.09
2023-02-08T06:17:04.168Z,101374.72
2023-02-08T06:19:37.657Z,101392.89
2023-02-08T06:22:11.132Z,101381.20
2023-02-08T06:24:44.782Z,101375.36
2023-02-08T06:27:18.145Z,101373.89
2023-02-08T06:29:51.813Z,101374.20
2023-02-08T06:32:26.235Z,101376.89
2023-02-08T06:35:00.293Z,101372.72
2023-02-08T06:37:34.904Z,101376.65
2023-02-08T06:40:10.606Z,101372.75
2023-02-08T06:42:46.792Z,101364.86
2023-02-08T06:45:20.751Z,101371.73
2023-02-08T06:47:54.257Z,101361.13
2023-02-08T06:50:45.611Z,101355.59
2023-02-08T06:53:18.744Z,101358.14
2023-02-08T06:55:52.606Z,101347.22
2023-02-08T06:58:43.406Z,101353.69
2023-02-08T07:01:17.873Z,101331.05
2023-02-08T07:03:51.376Z,101337.80
2023-02-08T07:06:24.798Z,101337.95
2023-02-08T07:08:58.381Z,101339.77
2023-02-08T07:11:32.064Z,101340.80
2023-02-08T07:14:05.584Z,101343.50
2023-02-08T07:16:39.123Z,101335.41
2023-02-08T07:19:13.071Z,101327.27
2023-02-08T07:21:46.609Z,101325.46
2023-02-08T07:24:19.885Z,101333.45
2023-02-08T07:26:53.340Z,101328.49
2023-02-08T07:29:27.106Z,101333.89
2023-02-08T07:32:02.189Z,101331.38
2023-02-08T07:34:38.024Z,101331.38
2023-02-08T07:37:11.294Z,101326.91
2023-02-08T07:39:47.810Z,101346.72
2023-02-08T07:42:21.747Z,101330.34
2023-02-08T07:44:56.909Z,101324.06
2023-02-08T07:47:30.464Z,101328.30
2023-02-08T07:50:04.036Z,101332.52
2023-02-08T07:52:54.898Z,101328.18
2023-02-08T07:55:28.640Z,101327.13
2023-02-08T07:58:02.156Z,101341.08
2023-02-08T08:00:35.560Z,101338.82
2023-02-08T08:03:08.937Z,101326.06
2023-02-08T08:05:44.186Z,101336.74
2023-02-08T08:08:17.618Z,101322.19
2023-02-08T08:10:51.356Z,101315.89
2023-02-08T08:13:42.870Z,101310.95
2023-02-08T08:16:16.896Z,101298.05
2023-02-08T08:18:50.936Z,101328.95
2023-02-08T08:21:24.286Z,101314.55
2023-02-08T08:23:57.829Z,101310.95
2023-02-08T08:26:31.382Z,101304.33
2023-02-08T08:29:05.179Z,101297.13
2023-02-08T08:31:38.866Z,101279.69
2023-02-08T08:34:30.621Z,101300.25
2023-02-08T08:37:04.674Z,101283.98
2023-02-08T08:39:38.189Z,101289.70
2023-02-08T08:42:12.145Z,101295.55
2023-02-08T08:44:45.672Z,101296.43
2023-02-08T08:47:19.122Z,101277.80
2023-02-08T08:49:52.398Z,101277.52
2023-02-08T08:52:25.747Z,101275.73
2023-02-08T08:54:59.241Z,101278.61
2023-02-08T08:57:34.862Z,101277.86
2023-02-08T09:00:27.488Z,101264.16
2023-02-08T09:03:00.973Z,101256.22
2023-02-08T09:05:34.487Z,101271.84
2023-02-08T09:08:08.259Z,101250.84
2023-02-08T09:10:41.836Z,101255.03
2023-02-08T09:13:17.265Z,101241.23
2023-02-08T09:15:51.107Z,101256.98
2023-02-08T09:18:24.444Z,101247.09
2023-02-08T09:20:57.903Z,101250.39
2023-02-08T09:23:48.830Z,101253.69
2023-02-08T09:26:23.355Z,101259.12
2023-02-08T09:28:56.852Z,101263.91
2023-02-08T09:31:32.143Z,101266.77
2023-02-08T09:34:06.476Z,101233.98
2023-02-08T09:36:41.858Z,101260.98
2023-02-08T09:39:18.661Z,101248.59
2023-02-08T09:42:09.526Z,101258.81
2023-02-08T09:44:49.056Z,101239.20
2023-02-08T09:47:25.197Z,101255.05
2023-02-08T09:50:01.799Z,101248.04
2023-02-08T09:52:40.628Z,101222.81
2023-02-08T09:55:27.418Z,101213.98
2023-02-08T09:58:02.956Z,101219.23
2023-02-08T10:00:41.353Z,101219.20
2023-02-08T10:03:23.039Z,101221.16
2023-02-08T10:05:56.808Z,101209.47
2023-02-08T10:08:35.609Z,101206.94
2023-02-08T10:11:17.743Z,101187.59
2023-02-08T10:14:02.338Z,101187.28
2023-02-08T10:17:03.960Z,101189.15
2023-02-08T10:19:46.054Z,101193.52
2023-02-08T10:22:26.802Z,101186.20
2023-02-08T10:25:11.707Z,101189.23
2023-02-08T10:27:50.626Z,101178.52
2023-02-08T10:30:35.798Z,101185.81
2023-02-08T10:33:30.772Z,101191.32
2023-02-08T10:36:04.883Z,101186.75
2023-02-08T10:38:46.501Z,101179.44
2023-02-08T10:41:33.835Z,101178.86
2023-02-08T10:44:10.762Z,101185.53
2023-02-08T10:46:47.559Z,101175.96
2023-02-08T10:49:24.086Z,101168.28
2023-02-08T10:51:57.693Z,101183.10
2023-02-08T10:54:31.315Z,101176.17
2023-02-08T10:57:07.551Z,101169.16
2023-02-08T10:59:50.284Z,101171.38
2023-02-08T11:02:29.119Z,101166.92
2023-02-08T11:05:05.132Z,101166.28
2023-02-08T11:07:38.966Z,101164.83
2023-02-08T11:10:25.751Z,101161.25
2023-02-08T11:13:03.842Z,101164.07
2023-02-08T11:15:41.922Z,101146.14
2023-02-08T11:18:22.140Z,101167.90
2023-02-08T11:20:58.280Z,101150.22
2023-02-08T11:23:34.649Z,101153.41
2023-02-08T11:26:19.992Z,101149.30
2023-02-08T11:29:06.267Z,101154.42
2023-02-08T11:31:41.853Z,101147.41
2023-02-08T11:34:15.670Z,101147.94
2023-02-08T11:36:50.118Z,101140.50
2023-02-08T11:39:27.440Z,101129.49
2023-02-08T11:42:03.043Z,101146.67
2023-02-08T11:44:38.908Z,101139.66
2023-02-08T11:47:15.147Z,101131.71
2023-02-08T11:49:54.885Z,101120.17
2023-02-08T11:52:32.482Z,101118.13
2023-02-08T11:55:15.278Z,101119.81
2023-02-08T11:57:57.232Z,101108.91
2023-02-08T12:00:34.281Z,101115.05
2023-02-08T12:03:10.185Z,101108.39
2023-02-08T12:05:47.065Z,101097.09
2023-02-08T12:08:23.505Z,101102.87
2023-02-08T12:11:28.390Z,101116.84
2023-02-08T12:14:33.861Z,101109.55
2023-02-08T12:17:20.239Z,101105.06
2023-02-08T12:20:03.470Z,101099.41
2023-02-08T12:22:40.782Z,101095.81
2023-02-08T12:25:24.168Z,101087.87
2023-02-08T12:28:02.597Z,101085.19
2023-02-08T12:30:38.722Z,101089.27
2023-02-08T12:33:40.596Z,101073.25
2023-02-08T12:36:32.705Z,101077.08
2023-02-08T12:42:32.306Z,101068.52
2023-02-08T12:45:15.330Z,101078.64
2023-02-08T12:48:13.604Z,101075.03
2023-02-08T12:50:50.953Z,101076.08
2023-02-08T12:53:29.295Z,101059.66
2023-02-08T12:56:06.061Z,101062.73
2023-02-08T12:58:43.634Z,101060.42
2023-02-08T13:01:18.394Z,101057.86
2023-02-08T13:03:55.233Z,101061.85
2023-02-08T13:06:31.496Z,101061.45
2023-02-08T13:09:07.604Z,101055.91
2023-02-08T13:11:44.152Z,101060.79
2023-02-08T13:14:22.450Z,101042.48
2023-02-08T13:16:58.873Z,101047.61
2023-02-08T13:19:35.390Z,101041.22
2023-02-08T13:22:08.844Z,101039.42
2023-02-08T13:24:44.602Z,101039.14
2023-02-08T13:27:20.836Z,101035.94
2023-02-08T13:30:12.247Z,101036.09
2023-02-08T13:32:50.325Z,101036.09
2023-02-08T13:35:27.730Z,101019.44
2023-02-08T13:38:23.555Z,101011.58
2023-02-08T13:41:08.769Z,101031.43
2023-02-08T13:43:45.976Z,101034.25
2023-02-08T13:46:20.388Z,101031.56
2023-02-08T13:48:56.765Z,101021.95
2023-02-08T13:52:18.428Z,101033.97
2023-02-08T13:55:00.227Z,101038.20
2023-02-08T13:57:56.466Z,101038.84
2023-02-08T14:00:31.791Z,101037.41
2023-02-08T14:03:07.240Z,101038.05
2023-02-08T14:06:00.909Z,101032.67
2023-02-08T14:08:37.210Z,101024.84
2023-02-08T14:11:14.691Z,101032.39
2023-02-08T14:13:51.650Z,101032.39
2023-02-08T14:16:33.665Z,101032.52
2023-02-08T14:19:09.353Z,101030.75
2023-02-08T14:22:02.556Z,101030.88
2023-02-08T14:24:39.536Z,101027.39
2023-02-08T14:27:20.610Z,101033.02
2023-02-08T14:30:03.660Z,101036.97
2023-02-08T14:32:39.771Z,101037.77
2023-02-08T14:35:20.913Z,101036.97
2023-02-08T14:38:05.714Z,101026.48
2023-02-08T14:40:52.720Z,101032.23
2023-02-08T14:43:35.153Z,101034.66
2023-02-08T14:46:45.638Z,101030.30
2023-02-08T14:49:42.033Z,101030.30
2023-02-08T14:52:21.634Z,101036.29
2023-02-08T14:54:57.888Z,101027.83
2023-02-08T14:57:49.667Z,101029.63
2023-02-08T15:00:26.926Z,101034.12
2023-02-08T15:03:01.601Z,101032.94
2023-02-08T15:06:01.823Z,101039.99
2023-02-08T15:08:35.491Z,101032.31
2023-02-08T15:11:11.908Z,101039.61
2023-02-08T15:13:46.880Z,101030.25
2023-02-08T15:16:20.713Z,101018.52
2023-02-08T15:18:56.137Z,101024.64
2023-02-08T15:21:34.500Z,101020.56
2023-02-08T15:24:29.332Z,101012.77
2023-02-08T15:27:02.994Z,101003.92
2023-02-08T15:29:48.069Z,101014.02
2023-02-08T15:32:25.708Z,100995.36
2023-02-08T15:35:01.360Z,101007.23
2023-02-08T15:37:36.650Z,101001.98
2023-02-08T15:40:23.469Z,101004.55
2023-02-08T15:42:58.523Z,101005.43
2023-02-08T15:45:32.135Z,101002.87
2023-02-08T15:48:24.813Z,101009.53
2023-02-08T15:50:59.116Z,101009.79
2023-02-08T15:53:34.223Z,101011.34
2023-02-08T15:56:08.950Z,100996.87
2023-02-08T15:58:44.667Z,100999.43
2023-02-08T16:01:21.959Z,100982.27
2023-02-08T16:03:58.725Z,101002.87
2023-02-08T16:06:34.240Z,100965.08
2023-02-08T16:09:08.253Z,100995.20
2023-02-08T16:11:43.137Z,100997.91
2023-02-08T16:14:18.015Z,101008.27
2023-02-08T16:16:54.099Z,101003.79
2023-02-08T16:19:29.747Z,101014.02
2023-02-08T16:22:27.242Z,101003.50
2023-02-08T16:25:17.559Z,101011.97
2023-02-08T16:27:52.566Z,101017.20
2023-02-08T16:30:26.393Z,101001.57
2023-02-08T16:33:01.384Z,101002.74
2023-02-08T16:35:36.548Z,101005.17
2023-02-08T16:38:12.089Z,101002.87
2023-02-08T16:40:52.676Z,101007.98
2023-02-08T16:43:28.470Z,101007.98
2023-02-08T16:46:24.691Z,101001.10
2023-02-08T16:48:59.316Z,101013.11
2023-02-08T16:51:35.909Z,101006.47
2023-02-08T16:54:12.771Z,101004.67
2023-02-08T16:56:47.781Z,101006.60
2023-02-08T17:02:21.157Z,101002.69
2023-02-08T17:07:36.751Z,101008.19
2023-02-08T17:10:14.400Z,101007.98
2023-02-08T17:12:46.598Z,101003.79
2023-02-08T17:15:21.135Z,100999.55
2023-02-08T17:17:55.157Z,101007.86
2023-02-08T17:20:30.711Z,101009.41
2023-02-08T17:23:06.526Z,101006.06
2023-02-08T17:25:40.660Z,101006.22
2023-02-08T17:28:18.631Z,101003.79
2023-02-08T17:30:53.260Z,100986.26
2023-02-08T17:33:29.439Z,100989.73
2023-02-08T17:36:03.013Z,100994.09
2023-02-08T17:38:39.174Z,101000.73
2023-02-08T17:41:17.280Z,101002.87
2023-02-08T17:43:53.325Z,100980.98
2023-02-08T17:46:28.214Z,100997.13
2023-02-08T17:49:02.060Z,100991.38
2023-02-08T17:54:17.529Z,100980.67
2023-02-08T17:56:52.858Z,100980.80
2023-02-08T17:59:44.170Z,100971.45
2023-02-08T18:02:17.642Z,100978.48
2023-02-08T18:04:51.078Z,100975.80
2023-02-08T18:07:24.407Z,100967.38
2023-02-08T18:09:57.851Z,100964.94
2023-02-08T18:12:31.577Z,100960.58
2023-02-08T18:15:05.784Z,100956.09
2023-02-08T18:17:59.693Z,100961.34
2023-02-08T18:20:33.949Z,100958.02
2023-02-08T18:23:07.544Z,100962.63
2023-02-08T18:25:41.604Z,100961.99
2023-02-08T18:28:16.751Z,100958.05
2023-02-08T18:30:50.453Z,100951.41
2023-02-08T18:33:23.622Z,100948.97
2023-02-08T18:35:56.720Z,100953.33
2023-02-08T18:38:31.030Z,100949.09
2023-02-08T18:41:23.586Z,100952.54
2023-02-08T18:43:58.032Z,100951.66
2023-02-08T18:46:31.811Z,100948.56
2023-02-08T18:49:07.067Z,100941.27
2023-02-08T18:51:40.991Z,100938.43
2023-02-08T18:54:33.132Z,100932.30
2023-02-08T18:57:08.850Z,100924.38
2023-02-08T18:59:42.465Z,100929.34
2023-02-08T19:02:35.111Z,100920.78
2023-02-08T19:05:09.662Z,100928.45
2023-02-08T19:08:00.934Z,100915.66
2023-02-08T19:10:35.785Z,100920.38
2023-02-08T19:13:09.439Z,100923.97
2023-02-08T19:15:43.766Z,100918.22
2023-02-08T19:18:17.365Z,100920.02
2023-02-08T19:20:51.026Z,100919.38
2023-02-08T19:23:26.600Z,100913.00
2023-02-08T19:26:01.420Z,100908.13
2023-02-08T19:28:36.007Z,100910.44
2023-02-08T19:31:12.615Z,100903.64
2023-02-08T19:33:47.924Z,100897.77
2023-02-08T19:36:23.242Z,100897.77
2023-02-08T19:38:57.259Z,100898.53
2023-02-08T19:41:33.441Z,100897.77
2023-02-08T19:44:09.709Z,100891.89
2023-02-08T19:46:45.528Z,100886.77
2023-02-08T19:49:19.540Z,100878.94
2023-02-08T19:51:53.281Z,100887.25
2023-02-08T19:54:27.094Z,100884.84
2023-02-08T19:57:02.687Z,100877.30
2023-02-08T19:59:36.135Z,100880.49
2023-02-08T20:02:11.666Z,100869.34
2023-02-08T20:04:44.959Z,100872.05
2023-02-08T20:07:18.386Z,100868.86
2023-02-08T20:09:52.007Z,100866.55
2023-02-08T20:12:25.477Z,100865.02
2023-02-08T20:14:59.165Z,100869.98
2023-02-08T20:17:34.392Z,100862.31
2023-02-08T20:20:10.075Z,100863.34
2023-02-08T20:22:43.501Z,100856.55
2023-02-08T20:25:17.512Z,100859.91
2023-02-08T20:27:50.943Z,100855.55
2023-02-08T20:30:25.527Z,100864.23
2023-02-08T20:32:59.824Z,100862.59
2023-02-08T20:35:33.157Z,100873.70
2023-02-08T20:38:06.477Z,100864.39
2023-02-08T20:40:39.842Z,100864.23
2023-02-08T20:43:13.215Z,100868.59
2023-02-08T20:45:47.198Z,100858.35
2023-02-08T20:48:20.780Z,100849.67
2023-02-08T20:50:53.872Z,100850.31
2023-02-08T20:53:27.402Z,100852.87
2023-02-08T20:56:00.856Z,100860.39
2023-02-08T20:58:34.769Z,100861.42
2023-02-08T21:01:11.340Z,100858.75
2023-02-08T21:03:45.158Z,100851.19
2023-02-08T21:06:21.175Z,100846.07
2023-02-08T21:08:57.182Z,100847.87
2023-02-08T21:11:33.232Z,100840.31
2023-02-08T21:14:07.963Z,100859.91
2023-02-08T21:16:41.467Z,100849.52
2023-02-08T21:19:15.441Z,100850.43
2023-02-08T21:21:52.601Z,100857.98
2023-02-08T21:24:26.395Z,100848.51
2023-02-08T21:27:01.088Z,100857.98
2023-02-08T21:29:34.492Z,100854.63
2023-02-08T21:32:08.405Z,100859.27
2023-02-08T21:34:41.681Z,100851.71
2023-02-08T21:37:15.268Z,100857.59
2023-02-08T21:39:51.058Z,100859.39
2023-02-08T21:42:24.502Z,100850.95
2023-02-08T21:44:58.944Z,100867.31
2023-02-08T21:47:34.153Z,100864.75
2023-02-08T21:50:26.684Z,100856.06
2023-02-08T21:53:17.757Z,100848.63
2023-02-08T21:55:51.926Z,100857.19
2023-02-08T21:58:25.826Z,100855.55
2023-02-08T22:00:59.256Z,100862.47
2023-02-08T22:03:34.253Z,100852.47
2023-02-08T22:06:08.888Z,100854.52
2023-02-08T22:08:42.325Z,100842.75
2023-02-08T22:11:17.734Z,100860.91
2023-02-08T22:13:51.257Z,100865.27
2023-02-08T22:16:24.601Z,100856.30
2023-02-08T22:18:58.212Z,100863.23
2023-02-08T22:21:31.920Z,100852.19
2023-02-08T22:24:05.697Z,100856.42
2023-02-08T22:26:39.352Z,100860.91
2023-02-08T22:29:12.998Z,100857.83
2023-02-08T22:31:46.560Z,100858.74
2023-02-08T22:34:20.264Z,100864.50
2023-02-08T22:36:55.635Z,100868.06
2023-02-08T22:39:29.150Z,100866.27
2023-02-08T22:42:03.554Z,100867.83
2023-02-08T22:44:37.123Z,100855.78
2023-02-08T22:47:11.778Z,100863.34
2023-02-08T22:49:45.360Z,100852.98
2023-02-08T22:52:19.267Z,100855.55
2023-02-08T22:54:54.434Z,100858.11
2023-02-08T22:57:27.793Z,100852.98
2023-02-08T23:00:01.132Z,100857.06
2023-02-08T23:02:36.651Z,100854.75
2023-02-08T23:05:10.724Z,100856.55
2023-02-08T23:07:44.409Z,100850.78
2023-02-08T23:10:17.860Z,100862.06
2023-02-08T23:12:51.222Z,100856.82
2023-02-08T23:15:24.734Z,100853.47
2023-02-08T23:17:58.643Z,100851.18
2023-02-08T23:20:32.267Z,100843.61
2023-02-08T23:23:05.480Z,100851.18
2023-02-08T23:25:40.607Z,100853.86
2023-02-08T23:28:14.544Z,100852.98
2023-02-08T23:30:48.329Z,100841.17
2023-02-08T23:33:21.901Z,100848.62
2023-02-08T23:35:55.159Z,100840.02
2023-02-08T23:38:28.882Z,100848.09
2023-02-08T23:41:05.086Z,100847.85
2023-02-08T23:43:39.159Z,100844.50
2023-02-08T23:46:14.374Z,100852.06
2023-02-08T23:48:48.784Z,100852.06
2023-02-08T23:51:23.828Z,100852.83
2023-02-08T23:53:57.425Z,100853.34
2023-02-08T23:56:32.648Z,100849.38
2023-02-08T23:59:07.846Z,100854.50
